Time;durP1;ratioP1;P1;durP2;ratioP2;P2;SDS_P1;SDS_P2;PMS_P1;PMS_P2;Temp;Humidity;BMP_temperature;BMP_pressure;BME280_temperature;BME280_humidity;BME280_pressure;Samples;Min_cycle;Max_cycle;Signal;HPM_P1;HPM_P2
2023/02/04 00:00:48;;;;;;;;;;;;;;;28.23;48.76;100919.63;5096760;27;70230;-35
2023/02/04 00:03:18;;;;;;;;;;;;;;;28.27;48.61;100916.28;5081224;27;65849;-37
2023/02/04 00:05:48;;;;;;;;;;;;;;;28.31;49.32;100924.84;5091747;27;70233;-36
2023/02/04 00:08:18;;;;;;;;;;;;;;;28.35;49.43;100919.88;5087443;27;65918;-37
2023/02/04 00:10:49;;;;;;;;;;;;;;;28.38;50.15;100925.69;5097060;27;69396;-36
2023/02/04 00:13:19;;;;;;;;;;;;;;;28.44;54.82;100919.50;5099082;27;66460;-35
2023/02/04 00:15:49;;;;;;;;;;;;;;;28.55;56.61;100936.16;5090334;27;70450;-36
2023/02/04 00:18:19;;;;;;;;;;;;;;;28.60;58.25;100939.06;5091503;27;66699;-40
2023/02/04 00:20:49;;;;;;;;;;;;;;;28.61;58.84;100935.31;5095983;27;69826;-38
2023/02/04 00:23:20;;;;;;;;;;;;;;;28.67;59.83;100929.13;5091561;27;65254;-37
2023/02/04 00:25:50;;;;;;;;;;;;;;;28.69;60.60;100933.25;5096111;27;69265;-39
2023/02/04 00:28:20;;;;;;;;;;;;;;;28.71;60.72;100939.28;5090074;27;65479;-38
2023/02/04 00:30:50;;;;;;;;;;;;;;;28.70;59.49;100950.31;5092278;27;68973;-38
2023/02/04 00:33:20;;;;;;;;;;;;;;;28.70;57.01;100940.34;5078276;27;65918;-39
2023/02/04 00:35:50;;;;;;;;;;;;;;;28.73;57.75;100949.91;5098932;27;69747;-41
2023/02/04 00:38:21;;;;;;;;;;;;;;;28.74;56.47;100951.56;5095280;27;66080;-37
2023/02/04 00:40:51;;;;;;;;;;;;;;;28.78;56.06;100958.22;5096015;27;69711;-37
2023/02/04 00:43:22;;;;;;;;;;;;;;;28.81;56.05;100960.50;5090065;27;66179;-37
2023/02/04 00:45:52;;;;;;;;;;;;;;;28.84;56.12;100961.97;5080651;27;68801;-36
2023/02/04 00:48:22;;;;;;;;;;;;;;;28.86;56.50;100973.38;5094349;27;65728;-37
2023/02/04 00:50:54;;;;;;;;;;;;;;;28.90;56.43;100971.94;5083959;27;70255;-37
2023/02/04 00:53:28;;;;;;;;;;;;;;;28.92;56.71;100980.69;5093941;27;59607;-36
2023/02/04 00:55:58;;;;;;;;;;;;;;;28.95;56.78;100980.28;5099438;27;70583;-37
2023/02/04 00:58:28;;;;;;;;;;;;;;;28.98;56.64;100984.44;5063134;27;65127;-36
2023/02/04 01:00:59;;;;;;;;;;;;;;;29.01;56.82;100994.81;5075713;27;69162;-35
2023/02/04 01:03:29;;;;;;;;;;;;;;;29.03;56.92;100998.13;5097633;27;65350;-36
2023/02/04 01:06:00;;;;;;;;;;;;;;;29.04;57.03;100989.03;5099278;27;69744;-37
2023/02/04 01:08:30;;;;;;;;;;;;;;;29.06;57.02;100992.34;5098821;27;66299;-37
2023/02/04 01:11:00;;;;;;;;;;;;;;;29.09;57.06;101000.06;5091887;27;70467;-38
2023/02/04 01:13:30;;;;;;;;;;;;;;;29.09;57.17;101008.19;5097510;27;67059;-37
2023/02/04 01:16:00;;;;;;;;;;;;;;;29.12;57.20;101002.34;5091503;27;70391;-37
2023/02/04 01:18:30;;;;;;;;;;;;;;;29.13;56.80;101009.41;5090073;27;66892;-39
2023/02/04 01:21:00;;;;;;;;;;;;;;;29.16;57.17;101009.00;5089210;27;70899;-36
2023/02/04 01:23:31;;;;;;;;;;;;;;;29.18;57.08;101012.34;5073631;27;66897;-36
2023/02/04 01:26:01;;;;;;;;;;;;;;;29.20;56.85;101015.66;5088828;27;70033;-37
2023/02/04 01:28:33;;;;;;;;;;;;;;;29.22;56.94;101024.38;5067485;27;65656;-36
2023/02/04 01:31:03;;;;;;;;;;;;;;;29.24;57.25;101016.91;5097597;27;70006;-36
2023/02/04 01:33:33;;;;;;;;;;;;;;;29.27;57.17;101027.31;5069821;27;66124;-38
2023/02/04 01:36:03;;;;;;;;;;;;;;;29.28;57.56;101028.97;5079287;27;70061;-36
2023/02/04 01:38:33;;;;;;;;;;;;;;;29.30;57.15;101024.19;5092864;27;65562;-39
2023/02/04 01:41:05;;;;;;;;;;;;;;;29.33;57.32;101025.63;5097373;27;70180;-36
2023/02/04 01:43:35;;;;;;;;;;;;;;;29.35;57.42;101024.41;5086077;27;66006;-37
2023/02/04 01:46:05;;;;;;;;;;;;;;;29.37;57.48;101030.44;5096088;27;69763;-39
2023/02/04 01:48:36;;;;;;;;;;;;;;;29.39;57.34;101031.06;5078646;27;66589;-38
2023/02/04 01:51:10;;;;;;;;;;;;;;;29.43;57.66;101030.66;5098609;27;70449;-37
2023/02/04 01:53:41;;;;;;;;;;;;;;;29.44;57.71;101038.53;5087044;27;65258;-38
2023/02/04 01:56:27;;;;;;;;;;;;;;;29.46;57.42;101030.25;5095333;27;69956;-37
2023/02/04 01:58:58;;;;;;;;;;;;;;;29.48;57.81;101033.56;5088482;27;66300;-37
2023/02/04 02:01:36;;;;;;;;;;;;;;;29.51;58.00;101038.56;5053404;27;69025;-37
2023/02/04 02:04:08;;;;;;;;;;;;;;;29.54;57.93;101032.75;5096661;27;66759;-36
2023/02/04 02:06:39;;;;;;;;;;;;;;;29.57;57.64;101037.72;5077691;27;69775;-36
2023/02/04 02:09:10;;;;;;;;;;;;;;;29.58;57.95;101034.78;5073840;27;66148;-37
2023/02/04 02:11:40;;;;;;;;;;;;;;;29.60;57.54;101038.13;5093136;27;70299;-37
2023/02/04 02:14:10;;;;;;;;;;;;;;;29.62;57.94;101030.66;5087815;27;66787;-36
2023/02/04 02:16:41;;;;;;;;;;;;;;;29.66;58.02;101041.91;5095016;27;69322;-36
2023/02/04 02:19:17;;;;;;;;;;;;;;;29.68;57.43;101039.84;5093168;27;65770;-37
2023/02/04 02:21:54;;;;;;;;;;;;;;;29.71;57.33;101035.88;5091688;27;69755;-37
2023/02/04 02:24:25;;;;;;;;;;;;;;;29.72;56.82;101037.53;5081003;27;66794;-36
2023/02/04 02:26:56;;;;;;;;;;;;;;;29.74;57.14;101044.41;5091120;27;69564;-36
2023/02/04 02:29:27;;;;;;;;;;;;;;;29.76;57.22;101042.31;5091394;27;66094;-36
2023/02/04 02:31:59;;;;;;;;;;;;;;;29.79;56.67;101052.72;5089632;27;69712;-37
2023/02/04 02:34:29;;;;;;;;;;;;;;;29.81;56.83;101039.84;5068279;27;68063;-37
2023/02/04 02:37:01;;;;;;;;;;;;;;;29.82;57.38;101025.25;5097657;27;69661;-38
2023/02/04 02:39:31;;;;;;;;;;;;;;;29.84;57.49;101028.59;5082135;27;65281;-39
2023/02/04 02:42:01;;;;;;;;;;;;;;;29.88;57.39;101026.28;5077012;27;69117;-38
2023/02/04 02:44:32;;;;;;;;;;;;;;;29.92;57.00;101032.09;5080051;27;66294;-38
2023/02/04 02:47:02;;;;;;;;;;;;;;;29.95;56.96;101037.09;5072771;27;70111;-38
2023/02/04 02:49:35;;;;;;;;;;;;;;;29.97;57.20;101035.00;5079033;27;66338;-37
2023/02/04 02:52:12;;;;;;;;;;;;;;;30.00;56.94;101034.59;5066730;27;69464;-36
2023/02/04 02:54:42;;;;;;;;;;;;;;;30.03;57.48;101034.16;5081582;27;66412;-36
2023/02/04 02:57:16;;;;;;;;;;;;;;;30.04;56.83;101019.63;5085077;27;69843;-40
2023/02/04 02:59:47;;;;;;;;;;;;;;;30.07;56.93;101024.59;5086486;27;66516;-36
2023/02/04 03:02:20;;;;;;;;;;;;;;;30.10;57.22;101023.34;5090404;27;69739;-36
2023/02/04 03:04:54;;;;;;;;;;;;;;;30.13;56.77;101018.34;5062898;27;67092;-36
2023/02/04 03:07:28;;;;;;;;;;;;;;;30.16;56.76;101022.50;5077828;27;70271;-37
2023/02/04 03:09:58;;;;;;;;;;;;;;;30.19;57.21;101020.19;5095351;27;66703;-38
2023/02/04 03:12:29;;;;;;;;;;;;;;;30.22;56.63;101014.38;5097593;27;70454;-36
2023/02/04 03:14:59;;;;;;;;;;;;;;;30.24;56.49;101020.41;5100168;27;66637;-38
2023/02/04 03:17:30;;;;;;;;;;;;;;;30.27;56.79;101006.47;5092258;27;68970;-38
2023/02/04 03:20:00;;;;;;;;;;;;;;;30.30;57.00;101007.91;5081736;27;65977;-39
2023/02/04 03:22:31;;;;;;;;;;;;;;;30.32;56.31;101007.72;5075429;27;70181;-37
2023/02/04 03:25:01;;;;;;;;;;;;;;;30.35;56.25;101007.28;5075097;27;66179;-37
2023/02/04 03:27:31;;;;;;;;;;;;;;;30.37;56.73;101005.16;5077846;27;70266;-37
2023/02/04 03:30:02;;;;;;;;;;;;;;;30.38;56.45;101001.44;5076430;27;65916;-38
2023/02/04 03:32:32;;;;;;;;;;;;;;;30.41;56.43;101001.84;5099020;27;70789;-37
2023/02/04 03:35:03;;;;;;;;;;;;;;;30.44;56.42;101000.56;5100795;27;65545;-37
2023/02/04 03:37:33;;;;;;;;;;;;;;;30.44;56.17;100996.00;5095607;27;70246;-37
2023/02/04 03:40:03;;;;;;;;;;;;;;;30.38;56.52;100996.03;5094684;27;65683;-37
2023/02/04 03:42:33;;;;;;;;;;;;;;;30.31;56.15;101000.63;5098392;27;70706;-37
2023/02/04 03:45:04;;;;;;;;;;;;;;;30.25;56.66;100991.47;5100054;27;64080;-38
2023/02/04 03:47:34;;;;;;;;;;;;;;;30.23;56.57;100989.00;5093045;27;69530;-38
2023/02/04 03:50:04;;;;;;;;;;;;;;;30.21;56.84;100985.63;5088256;27;66039;-41
2023/02/04 03:52:34;;;;;;;;;;;;;;;30.19;56.92;100981.47;5097138;27;69932;-41
2023/02/04 03:55:05;;;;;;;;;;;;;;;30.16;57.27;100981.91;5094437;27;66162;-40
2023/02/04 03:57:35;;;;;;;;;;;;;;;30.16;57.04;100976.50;5097529;27;70383;-44
2023/02/04 04:00:07;;;;;;;;;;;;;;;30.15;57.07;100975.69;5047078;27;67230;-43
2023/02/04 04:02:41;;;;;;;;;;;;;;;30.16;57.28;100971.09;5073956;27;69514;-42
2023/02/04 04:05:12;;;;;;;;;;;;;;;30.18;57.40;100964.44;5094088;27;66615;-40
2023/02/04 04:07:42;;;;;;;;;;;;;;;30.19;57.80;100960.66;5076523;27;70729;-38
2023/02/04 04:10:12;;;;;;;;;;;;;;;30.20;57.51;100956.06;5096153;27;67774;-39
2023/02/04 04:12:43;;;;;;;;;;;;;;;30.25;57.79;100951.72;5096684;27;70332;-39
2023/02/04 04:15:13;;;;;;;;;;;;;;;30.33;57.19;100949.81;5086654;27;65826;-39
2023/02/04 04:17:43;;;;;;;;;;;;;;;30.42;56.74;100937.69;5077629;27;70058;-41
2023/02/04 04:20:13;;;;;;;;;;;;;;;30.47;56.70;100944.13;5085103;27;66108;-39
2023/02/04 04:22:44;;;;;;;;;;;;;;;30.54;56.80;100930.56;5089555;27;70351;-39
2023/02/04 04:25:14;;;;;;;;;;;;;;;30.59;55.95;100922.63;5094066;27;66240;-40
2023/02/04 04:27:44;;;;;;;;;;;;;;;30.62;56.37;100922.19;5096365;27;70378;-39
2023/02/04 04:30:15;;;;;;;;;;;;;;;30.68;55.66;100926.72;5094890;27;66660;-39
2023/02/04 04:32:45;;;;;;;;;;;;;;;30.72;55.73;100921.69;5083288;27;69418;-40
2023/02/04 04:35:15;;;;;;;;;;;;;;;30.76;55.24;100917.53;5096877;27;66043;-40
2023/02/04 04:37:46;;;;;;;;;;;;;;;30.77;55.14;100899.41;5091730;27;70235;-38
2023/02/04 04:40:16;;;;;;;;;;;;;;;30.82;55.03;100896.91;5090671;27;67024;-40
2023/02/04 04:42:46;;;;;;;;;;;;;;;30.84;55.33;100889.34;5073161;27;68271;-40
2023/02/04 04:45:16;;;;;;;;;;;;;;;30.75;55.69;100887.94;5087520;27;66802;-43
2023/02/04 04:47:48;;;;;;;;;;;;;;;30.69;56.23;100885.06;5061618;27;70504;-38
2023/02/04 04:50:18;;;;;;;;;;;;;;;30.66;56.36;100869.25;5087858;27;65821;-41
2023/02/04 04:52:48;;;;;;;;;;;;;;;30.64;56.48;100871.34;5092094;27;70687;-41
2023/02/04 04:55:18;;;;;;;;;;;;;;;30.66;56.34;100863.00;5090605;27;66763;-37
2023/02/04 04:57:48;;;;;;;;;;;;;;;30.70;55.42;100856.09;5090605;27;70613;-42
2023/02/04 05:00:20;;;;;;;;;;;;;;;30.65;56.31;100851.38;5056315;27;66071;-41
2023/02/04 05:02:50;;;;;;;;;;;;;;;30.64;55.99;100849.69;5078961;27;69593;-41
2023/02/04 05:05:21;;;;;;;;;;;;;;;30.63;56.18;100848.03;5094078;27;66471;-38
2023/02/04 05:07:52;;;;;;;;;;;;;;;30.62;56.50;100840.13;5097390;27;70497;-39
2023/02/04 05:10:22;;;;;;;;;;;;;;;30.61;56.37;100839.28;5079778;27;66075;-42
2023/02/04 05:12:52;;;;;;;;;;;;;;;30.61;56.55;100843.88;5092729;27;69332;-36
2023/02/04 05:15:23;;;;;;;;;;;;;;;30.61;56.51;100833.06;5082189;27;66857;-39
2023/02/04 05:17:53;;;;;;;;;;;;;;;30.62;56.75;100829.28;5075112;27;69605;-40
2023/02/04 05:20:23;;;;;;;;;;;;;;;30.62;57.12;100823.88;5098991;27;66235;-40
2023/02/04 05:22:59;;;;;;;;;;;;;;;30.63;57.03;100820.97;5096980;27;70548;-41
2023/02/04 05:25:32;;;;;;;;;;;;;;;30.66;57.00;100820.53;5099860;27;65784;-41
2023/02/04 05:28:03;;;;;;;;;;;;;;;30.67;57.33;100811.38;5096948;27;70273;-41
2023/02/04 05:30:34;;;;;;;;;;;;;;;30.69;57.15;100797.59;5068287;27;67331;-39
2023/02/04 05:33:05;;;;;;;;;;;;;;;30.71;56.97;100793.63;5099524;27;69652;-40
2023/02/04 05:35:35;;;;;;;;;;;;;;;30.73;57.57;100783.41;5096784;27;66774;-39
2023/02/04 05:38:06;;;;;;;;;;;;;;;30.78;57.57;100779.19;5100025;27;70064;-40
2023/02/04 05:40:36;;;;;;;;;;;;;;;30.79;57.13;100775.44;5096687;27;65946;-41
2023/02/04 05:43:06;;;;;;;;;;;;;;;30.81;56.93;100767.94;5096603;27;69001;-43
2023/02/04 05:45:36;;;;;;;;;;;;;;;30.80;57.77;100755.47;5077555;27;65309;-42
2023/02/04 05:48:07;;;;;;;;;;;;;;;30.81;57.93;100762.53;5059012;27;69087;-41
2023/02/04 05:50:37;;;;;;;;;;;;;;;30.84;57.75;100752.09;5069219;28;65492;-39
2023/02/04 05:53:10;;;;;;;;;;;;;;;30.84;58.06;100751.25;5071165;27;70421;-40
2023/02/04 05:55:40;;;;;;;;;;;;;;;30.88;57.63;100741.63;5075531;28;66449;-43
2023/02/04 05:58:11;;;;;;;;;;;;;;;30.88;57.92;100738.91;5069840;27;69410;-42
2023/02/04 06:00:41;;;;;;;;;;;;;;;30.90;57.64;100734.13;5069942;27;65337;-41
2023/02/04 06:03:13;;;;;;;;;;;;;;;30.91;57.97;100733.06;5062552;27;69824;-41
2023/02/04 06:05:43;;;;;;;;;;;;;;;30.94;57.40;100719.06;5071649;28;66377;-44
2023/02/04 06:08:14;;;;;;;;;;;;;;;30.95;57.38;100726.13;5073349;27;70105;-39
2023/02/04 06:10:44;;;;;;;;;;;;;;;30.95;57.30;100723.41;5072264;27;67055;-42
2023/02/04 06:13:15;;;;;;;;;;;;;;;30.98;57.20;100703.19;5071741;27;69842;-38
2023/02/04 06:15:45;;;;;;;;;;;;;;;30.99;57.65;100705.69;5073164;28;65325;-38
2023/02/04 06:18:15;;;;;;;;;;;;;;;31.01;57.65;100692.75;5069387;27;69914;-38
2023/02/04 06:20:46;;;;;;;;;;;;;;;31.03;57.83;100690.59;5064740;27;66844;-41
2023/02/04 06:23:16;;;;;;;;;;;;;;;31.05;57.97;100680.38;5093198;27;69127;-41
2023/02/04 06:25:48;;;;;;;;;;;;;;;31.07;57.75;100681.00;5078029;28;66991;-40
2023/02/04 06:28:18;;;;;;;;;;;;;;;31.09;57.54;100668.06;5071920;27;70593;-43
2023/02/04 06:30:49;;;;;;;;;;;;;;;31.11;57.82;100665.94;5076509;27;66568;-43
2023/02/04 06:33:20;;;;;;;;;;;;;;;31.13;57.65;100657.59;5074459;28;69887;-41
2023/02/04 06:35:50;;;;;;;;;;;;;;;31.14;57.51;100660.03;5076134;28;65511;-39
2023/02/04 06:38:20;;;;;;;;;;;;;;;31.19;57.47;100655.84;5073838;28;70232;-40
2023/02/04 06:40:52;;;;;;;;;;;;;;;31.19;57.29;100645.00;5058730;28;65283;-41
2023/02/04 06:43:24;;;;;;;;;;;;;;;31.22;57.15;100644.53;5069727;27;69448;-38
2023/02/04 06:45:54;;;;;;;;;;;;;;;31.24;57.20;100637.84;5075507;27;66794;-42
2023/02/04 06:48:24;;;;;;;;;;;;;;;31.27;56.82;100636.56;5079569;28;69833;-41
2023/02/04 06:50:55;;;;;;;;;;;;;;;31.32;56.60;100634.00;5091666;27;67564;-38
2023/02/04 06:53:25;;;;;;;;;;;;;;;31.30;56.81;100625.25;5089120;27;69687;-42
2023/02/04 06:55:56;;;;;;;;;;;;;;;31.36;56.69;100624.38;5101266;27;66000;-41
2023/02/04 06:58:26;;;;;;;;;;;;;;;31.36;56.57;100613.53;5061459;27;70278;-40
2023/02/04 07:00:56;;;;;;;;;;;;;;;31.39;56.52;100605.75;5097657;27;66107;-37
2023/02/04 07:03:26;;;;;;;;;;;;;;;31.44;56.37;100593.41;5088200;27;70578;-41
2023/02/04 07:05:57;;;;;;;;;;;;;;;31.46;56.17;100592.13;5072124;27;66365;-38
2023/02/04 07:08:27;;;;;;;;;;;;;;;31.47;56.06;100582.94;5094663;27;70506;-38
2023/02/04 07:10:58;;;;;;;;;;;;;;;31.52;56.06;100580.34;5076206;27;66252;-38
2023/02/04 07:13:28;;;;;;;;;;;;;;;31.54;55.46;100588.25;5093563;27;70318;-42
2023/02/04 07:15:58;;;;;;;;;;;;;;;31.54;55.47;100583.66;5079437;27;65258;-38
2023/02/04 07:18:29;;;;;;;;;;;;;;;31.53;55.41;100584.69;5075339;27;70649;-40
2023/02/04 07:20:59;;;;;;;;;;;;;;;31.52;55.38;100580.34;5095283;27;66389;-41
2023/02/04 07:23:29;;;;;;;;;;;;;;;31.52;55.16;100574.94;5089447;27;69191;-38
2023/02/04 07:26:00;;;;;;;;;;;;;;;31.53;55.22;100575.75;5092849;27;65657;-39
2023/02/04 07:28:30;;;;;;;;;;;;;;;31.52;55.23;100569.50;5061212;27;69933;-39
2023/02/04 07:31:01;;;;;;;;;;;;;;;31.55;55.06;100563.63;5083400;27;65807;-38
2023/02/04 07:33:31;;;;;;;;;;;;;;;31.55;55.22;100563.63;5092107;27;69409;-39
2023/02/04 07:36:01;;;;;;;;;;;;;;;31.56;54.85;100567.97;5098842;27;66729;-39
2023/02/04 07:38:31;;;;;;;;;;;;;;;31.56;54.61;100565.25;5098087;27;69468;-45
2023/02/04 07:41:02;;;;;;;;;;;;;;;31.57;54.94;100561.50;5065014;27;66018;-40
2023/02/04 07:43:33;;;;;;;;;;;;;;;31.57;54.28;100566.09;5057387;27;70034;-39
2023/02/04 07:46:05;;;;;;;;;;;;;;;31.60;53.74;100560.22;5047575;27;66404;-39
2023/02/04 07:48:38;;;;;;;;;;;;;;;31.57;53.93;100566.94;5028223;27;71247;-38
2023/02/04 07:51:09;;;;;;;;;;;;;;;31.61;54.10;100562.69;5071783;27;65957;-41
2023/02/04 07:53:39;;;;;;;;;;;;;;;31.64;54.08;100563.28;5087039;27;69778;-40
2023/02/04 07:56:10;;;;;;;;;;;;;;;31.62;53.91;100560.78;5097441;27;65530;-41
2023/02/04 07:58:40;;;;;;;;;;;;;;;31.66;53.54;100556.56;5098894;27;69740;-41
2023/02/04 08:01:11;;;;;;;;;;;;;;;31.65;53.89;100564.91;5075260;27;65489;-39
2023/02/04 08:03:41;;;;;;;;;;;;;;;31.65;53.79;100551.38;5095266;27;69719;-39
2023/02/04 08:06:12;;;;;;;;;;;;;;;31.66;53.88;100547.63;5095682;27;65915;-47
2023/02/04 08:08:42;;;;;;;;;;;;;;;31.70;53.79;100559.63;5094070;27;69838;-41
2023/02/04 08:11:12;;;;;;;;;;;;;;;31.72;54.34;100552.09;5099139;27;65515;-40
2023/02/04 08:13:42;;;;;;;;;;;;;;;31.79;54.34;100558.25;5095680;27;69717;-42
2023/02/04 08:16:12;;;;;;;;;;;;;;;31.82;54.93;100549.63;5099524;27;66861;-40
2023/02/04 08:18:43;;;;;;;;;;;;;;;31.87;55.02;100554.34;5097487;27;70194;-40
2023/02/04 08:21:13;;;;;;;;;;;;;;;31.91;55.04;100555.53;5097796;27;66172;-39
2023/02/04 08:23:44;;;;;;;;;;;;;;;31.95;55.02;100552.13;5095704;27;70440;-38
2023/02/04 08:26:15;;;;;;;;;;;;;;;32.00;54.96;100551.44;5099161;27;66753;-38
2023/02/04 08:28:48;;;;;;;;;;;;;;;32.03;55.57;100553.66;5089150;27;70557;-37
2023/02/04 08:31:18;;;;;;;;;;;;;;;32.07;55.26;100540.44;5094695;27;66096;-39
2023/02/04 08:33:48;;;;;;;;;;;;;;;32.13;55.58;100555.81;5076852;27;70662;-40
2023/02/04 08:36:18;;;;;;;;;;;;;;;32.15;55.17;100550.94;5096714;27;67084;-40
2023/02/04 08:38:48;;;;;;;;;;;;;;;32.21;56.14;100555.44;5095652;27;70737;-39
2023/02/04 08:41:18;;;;;;;;;;;;;;;32.26;55.81;100541.97;5089286;27;66520;-41
2023/02/04 08:43:49;;;;;;;;;;;;;;;32.29;56.57;100549.66;5097205;27;69382;-40
2023/02/04 08:46:19;;;;;;;;;;;;;;;32.33;56.98;100548.13;5076212;27;65981;-43
2023/02/04 08:48:50;;;;;;;;;;;;;;;32.36;57.30;100544.91;5076473;27;69851;-39
2023/02/04 08:51:20;;;;;;;;;;;;;;;32.38;57.86;100556.38;5090988;27;67449;-38
2023/02/04 08:53:50;;;;;;;;;;;;;;;32.41;57.87;100549.63;5092817;27;70286;-41
2023/02/04 08:56:20;;;;;;;;;;;;;;;32.45;57.75;100557.06;5093715;27;65726;-38
2023/02/04 08:58:53;;;;;;;;;;;;;;;32.46;57.69;100558.75;5086930;27;70370;-38
2023/02/04 09:01:23;;;;;;;;;;;;;;;32.50;57.59;100559.09;5093875;27;66371;-37
2023/02/04 09:03:53;;;;;;;;;;;;;;;32.49;57.62;100558.28;5072881;27;69904;-41
2023/02/04 09:06:24;;;;;;;;;;;;;;;32.51;57.89;100559.91;5077865;27;65578;-37
2023/02/04 09:08:54;;;;;;;;;;;;;;;32.68;57.84;100568.97;5088206;27;70306;-39
2023/02/04 09:11:25;;;;;;;;;;;;;;;32.87;57.49;100575.88;5068576;27;66488;-40
2023/02/04 09:13:56;;;;;;;;;;;;;;;33.00;57.22;100576.69;5097112;27;70555;-38
2023/02/04 09:16:26;;;;;;;;;;;;;;;33.09;56.60;100583.38;5093790;27;65325;-41
2023/02/04 09:18:57;;;;;;;;;;;;;;;33.18;56.56;100581.09;5076787;27;70428;-42
2023/02/04 09:21:28;;;;;;;;;;;;;;;33.20;56.81;100579.78;5090739;27;67000;-37
2023/02/04 09:23:58;;;;;;;;;;;;;;;33.25;56.04;100577.19;5092263;27;69321;-38
2023/02/04 09:26:29;;;;;;;;;;;;;;;33.31;55.27;100578.91;5092019;27;67075;-39
2023/02/04 09:28:59;;;;;;;;;;;;;;;33.34;55.98;100586.56;5090497;27;69721;-39
2023/02/04 09:31:29;;;;;;;;;;;;;;;33.38;54.46;100581.50;5093171;27;66042;-38
2023/02/04 09:33:59;;;;;;;;;;;;;;;33.42;54.39;100587.25;5089968;27;70270;-39
2023/02/04 09:36:31;;;;;;;;;;;;;;;33.46;54.58;100577.53;5095490;27;66074;-37
2023/02/04 09:39:02;;;;;;;;;;;;;;;33.51;54.25;100583.88;5093629;27;69973;-38
2023/02/04 09:41:33;;;;;;;;;;;;;;;33.55;51.97;100587.00;5094523;27;65409;-38
2023/02/04 09:44:04;;;;;;;;;;;;;;;33.62;53.17;100587.63;5089183;27;70187;-38
2023/02/04 09:46:34;;;;;;;;;;;;;;;33.55;52.34;100587.00;5075184;27;65585;-41
2023/02/04 09:49:04;;;;;;;;;;;;;;;33.36;53.53;100584.44;5088651;27;69989;-41
2023/02/04 09:51:35;;;;;;;;;;;;;;;33.26;54.14;100592.41;5095652;27;66724;-38
2023/02/04 09:54:08;;;;;;;;;;;;;;;33.15;54.49;100583.25;5099900;27;70474;-43
2023/02/04 09:56:39;;;;;;;;;;;;;;;33.12;54.38;100588.34;5096487;27;66524;-39
2023/02/04 09:59:13;;;;;;;;;;;;;;;33.03;54.51;100595.22;5083530;27;70352;-40
2023/02/04 10:01:43;;;;;;;;;;;;;;;32.93;54.47;100590.38;5100780;27;66870;-44
2023/02/04 10:04:14;;;;;;;;;;;;;;;32.86;54.47;100587.81;5099505;27;70129;-40
2023/02/04 10:06:44;;;;;;;;;;;;;;;32.81;54.54;100593.13;5098066;27;66496;-41
2023/02/04 10:09:15;;;;;;;;;;;;;;;32.77;54.67;100596.59;5095642;27;69937;-40
2023/02/04 10:11:47;;;;;;;;;;;;;;;32.74;54.98;100592.47;5089121;27;66109;-43
2023/02/04 10:14:20;;;;;;;;;;;;;;;32.72;55.22;100600.03;5095516;27;69914;-40
2023/02/04 10:16:57;;;;;;;;;;;;;;;32.66;55.45;100595.56;5094041;27;66130;-40
2023/02/04 10:19:29;;;;;;;;;;;;;;;32.63;55.37;100590.59;5082897;27;70203;-39
2023/02/04 10:22:02;;;;;;;;;;;;;;;32.58;55.60;100593.19;5084515;27;65965;-43
2023/02/04 10:24:34;;;;;;;;;;;;;;;32.60;55.59;100596.50;5084299;27;69973;-40
2023/02/04 10:27:08;;;;;;;;;;;;;;;32.57;55.84;100607.81;5097136;27;66454;-39
2023/02/04 10:29:41;;;;;;;;;;;;;;;32.53;55.93;100609.38;5095990;27;69806;-39
2023/02/04 10:32:24;;;;;;;;;;;;;;;32.51;56.14;100604.16;5079072;27;66071;-43
2023/02/04 10:34:57;;;;;;;;;;;;;;;32.48;56.32;100604.66;5094840;27;70313;-39
2023/02/04 10:37:29;;;;;;;;;;;;;;;32.46;56.34;100604.91;5077832;27;66830;-42
2023/02/04 10:39:59;;;;;;;;;;;;;;;32.45;57.01;100610.53;5081319;27;69988;-40
2023/02/04 10:42:31;;;;;;;;;;;;;;;32.42;57.31;100617.25;5094948;27;65068;-41
2023/02/04 10:45:01;;;;;;;;;;;;;;;32.44;57.48;100615.13;5097140;27;70137;-42
2023/02/04 10:47:31;;;;;;;;;;;;;;;32.41;57.53;100622.94;5096222;27;66726;-40
2023/02/04 10:50:06;;;;;;;;;;;;;;;32.35;57.05;100615.75;5094520;27;70713;-37
2023/02/04 10:52:45;;;;;;;;;;;;;;;32.31;57.00;100617.25;5093376;27;66894;-38
2023/02/04 10:55:19;;;;;;;;;;;;;;;32.27;57.16;100625.06;5094224;27;69913;-37
2023/02/04 10:57:53;;;;;;;;;;;;;;;32.21;56.87;100624.13;5094644;27;66813;-38
2023/02/04 11:00:23;;;;;;;;;;;;;;;32.16;56.37;100623.19;5096222;27;70052;-41
2023/02/04 11:02:56;;;;;;;;;;;;;;;32.18;56.27;100627.31;5091561;27;65433;-40
2023/02/04 11:05:31;;;;;;;;;;;;;;;32.18;56.12;100626.47;5092454;27;69640;-39
2023/02/04 11:08:02;;;;;;;;;;;;;;;32.16;57.16;100620.47;5075424;27;66167;-38
2023/02/04 11:10:33;;;;;;;;;;;;;;;32.16;56.92;100621.28;5095343;27;70430;-39
2023/02/04 11:13:05;;;;;;;;;;;;;;;32.12;57.53;100630.94;5092889;27;67029;-39
2023/02/04 11:15:35;;;;;;;;;;;;;;;32.07;57.54;100636.25;5088976;27;70303;-38
2023/02/04 11:18:29;;;;;;;;;;;;;;;32.03;57.38;100638.59;5086907;27;66645;-40
2023/02/04 11:20:59;;;;;;;;;;;;;;;32.02;57.26;100649.69;5078079;27;69899;-38
2023/02/04 11:23:31;;;;;;;;;;;;;;;32.00;56.92;100662.66;5089873;27;65923;-40
2023/02/04 11:26:03;;;;;;;;;;;;;;;31.98;57.04;100662.91;5089191;27;69833;-41
2023/02/04 11:28:47;;;;;;;;;;;;;;;31.95;56.92;100666.06;5071591;27;65343;-36
2023/02/04 11:31:20;;;;;;;;;;;;;;;31.93;57.12;100670.94;5078456;27;70327;-37
2023/02/04 11:34:01;;;;;;;;;;;;;;;31.92;57.03;100677.38;5090900;27;66332;-36
2023/02/04 11:36:32;;;;;;;;;;;;;;;31.90;57.28;100682.22;5091634;27;70400;-43
2023/02/04 11:39:07;;;;;;;;;;;;;;;31.89;56.98;100677.81;5073359;27;65958;-38
2023/02/04 11:41:37;;;;;;;;;;;;;;;31.86;56.23;100681.00;5093043;27;69736;-40
2023/02/04 11:44:08;;;;;;;;;;;;;;;31.84;56.60;100680.41;5092501;27;66173;-38
2023/02/04 11:46:38;;;;;;;;;;;;;;;31.84;56.55;100685.81;5088858;27;69060;-37
2023/02/04 11:49:16;;;;;;;;;;;;;;;31.88;56.27;100687.03;5092156;27;66465;-40
2023/02/04 11:51:46;;;;;;;;;;;;;;;31.93;54.18;100689.91;5088298;27;70396;-39
2023/02/04 11:54:18;;;;;;;;;;;;;;;31.90;51.63;100679.50;5090520;27;66363;-39
2023/02/04 11:56:51;;;;;;;;;;;;;;;31.85;49.68;100695.63;5091422;27;70234;-41
2023/02/04 11:59:21;;;;;;;;;;;;;;;31.82;49.04;100693.38;5091935;27;66412;-40
2023/02/04 12:02:02;;;;;;;;;;;;;;;31.79;49.30;100696.56;5091145;27;70958;-39
2023/02/04 12:04:33;;;;;;;;;;;;;;;31.78;48.51;100703.03;5092310;27;65641;-42
2023/02/04 12:07:03;;;;;;;;;;;;;;;31.75;47.87;100704.31;5093598;27;68984;-43
2023/02/04 12:09:33;;;;;;;;;;;;;;;31.72;47.08;100703.97;5089497;27;66354;-39
2023/02/04 12:12:04;;;;;;;;;;;;;;;31.64;46.74;100707.00;5086756;27;70745;-39
2023/02/04 12:14:35;;;;;;;;;;;;;;;31.57;45.78;100712.50;5093435;27;65711;-39
2023/02/04 12:17:31;;;;;;;;;;;;;;;31.46;44.53;100716.81;5096301;27;70815;-40
2023/02/04 12:20:02;;;;;;;;;;;;;;;31.35;43.68;100717.56;5095235;27;66133;-42
2023/02/04 12:22:32;;;;;;;;;;;;;;;31.31;43.79;100721.75;5079330;27;69913;-41
2023/02/04 12:25:02;;;;;;;;;;;;;;;31.25;43.05;100725.38;5078973;27;67068;-44
2023/02/04 12:27:32;;;;;;;;;;;;;;;31.16;43.02;100716.72;5092887;27;70810;-40
2023/02/04 12:30:03;;;;;;;;;;;;;;;31.14;42.85;100713.41;5094751;27;66006;-38
2023/02/04 12:32:33;;;;;;;;;;;;;;;31.09;43.60;100730.38;5076063;27;69591;-41
2023/02/04 12:35:04;;;;;;;;;;;;;;;31.06;43.92;100733.50;5097674;27;65906;-40
2023/02/04 12:37:35;;;;;;;;;;;;;;;31.04;43.56;100735.63;5091640;27;69279;-40
2023/02/04 12:40:05;;;;;;;;;;;;;;;31.03;44.31;100739.38;5090085;27;66576;-37
2023/02/04 12:42:35;;;;;;;;;;;;;;;30.98;45.01;100741.94;5086601;27;70578;-40
2023/02/04 12:45:06;;;;;;;;;;;;;;;30.96;44.91;100746.75;5093723;27;66099;-40
2023/02/04 12:47:36;;;;;;;;;;;;;;;30.94;44.15;100754.28;5094157;27;69810;-41
2023/02/04 12:50:07;;;;;;;;;;;;;;;30.90;43.60;100750.38;5097720;27;66468;-38
2023/02/04 12:52:38;;;;;;;;;;;;;;;30.82;43.18;100756.91;5095653;27;69472;-39
2023/02/04 12:55:08;;;;;;;;;;;;;;;30.75;42.19;100763.38;5091794;27;66837;-39